sensor_id;sensor_type;location;lat;lon;timestamp;P1;durP1;ratioP1;P2;durP2;ratioP2
46290;SDS011;32023;44.444;26.006;2023-12-20T00:00:42;123.93;;;71.47;;
46290;SDS011;32023;44.444;26.006;2023-12-20T00:03:09;117.78;;;68.25;;
46290;SDS011;32023;44.444;26.006;2023-12-20T00:05:39;115.72;;;68.80;;
46290;SDS011;32023;44.444;26.006;2023-12-20T00:08:06;121.00;;;69.18;;
46290;SDS011;32023;44.444;26.006;2023-12-20T00:13:04;119.05;;;67.75;;
46290;SDS011;32023;44.444;26.006;2023-12-20T00:15:32;114.15;;;68.40;;
46290;SDS011;32023;44.444;26.006;2023-12-20T00:21:05;119.07;;;69.63;;
46290;SDS011;32023;44.444;26.006;2023-12-20T00:23:32;118.28;;;66.65;;
46290;SDS011;32023;44.444;26.006;2023-12-20T00:25:58;112.30;;;65.93;;
46290;SDS011;32023;44.444;26.006;2023-12-20T00:31:00;116.45;;;65.03;;
46290;SDS011;32023;44.444;26.006;2023-12-20T00:33:27;110.90;;;64.85;;
46290;SDS011;32023;44.444;26.006;2023-12-20T00:35:53;108.90;;;64.93;;
46290;SDS011;32023;44.444;26.006;2023-12-20T00:38:21;115.88;;;69.30;;
46290;SDS011;32023;44.444;26.006;2023-12-20T00:40:49;111.68;;;68.18;;
46290;SDS011;32023;44.444;26.006;2023-12-20T00:45:55;111.53;;;66.85;;
46290;SDS011;32023;44.444;26.006;2023-12-20T00:48:26;114.20;;;66.45;;
46290;SDS011;32023;44.444;26.006;2023-12-20T00:50:52;114.20;;;65.88;;
46290;SDS011;32023;44.444;26.006;2023-12-20T00:53:19;114.95;;;68.30;;
46290;SDS011;32023;44.444;26.006;2023-12-20T00:55:45;125.15;;;71.03;;
46290;SDS011;32023;44.444;26.006;2023-12-20T00:58:24;121.65;;;68.25;;
46290;SDS011;32023;44.444;26.006;2023-12-20T01:00:51;116.03;;;66.65;;
46290;SDS011;32023;44.444;26.006;2023-12-20T01:03:18;119.32;;;70.72;;
46290;SDS011;32023;44.444;26.006;2023-12-20T01:05:58;115.32;;;67.22;;
46290;SDS011;32023;44.444;26.006;2023-12-20T01:08:25;114.20;;;67.30;;
46290;SDS011;32023;44.444;26.006;2023-12-20T01:10:52;115.32;;;67.05;;
46290;SDS011;32023;44.444;26.006;2023-12-20T01:13:30;113.00;;;66.97;;
46290;SDS011;32023;44.444;26.006;2023-12-20T01:15:57;119.28;;;67.43;;
46290;SDS011;32023;44.444;26.006;2023-12-20T01:18:26;109.25;;;65.75;;
46290;SDS011;32023;44.444;26.006;2023-12-20T01:26:35;110.05;;;66.43;;
46290;SDS011;32023;44.444;26.006;2023-12-20T01:31:50;104.28;;;62.85;;
46290;SDS011;32023;44.444;26.006;2023-12-20T01:36:51;109.63;;;64.03;;
46290;SDS011;32023;44.444;26.006;2023-12-20T01:39:31;110.45;;;63.88;;
46290;SDS011;32023;44.444;26.006;2023-12-20T01:41:58;107.88;;;62.53;;
46290;SDS011;32023;44.444;26.006;2023-12-20T01:44:25;102.10;;;60.45;;
46290;SDS011;32023;44.444;26.006;2023-12-20T01:46:53;103.82;;;62.83;;
46290;SDS011;32023;44.444;26.006;2023-12-20T01:49:22;99.90;;;59.72;;
46290;SDS011;32023;44.444;26.006;2023-12-20T01:51:53;103.40;;;60.45;;
46290;SDS011;32023;44.444;26.006;2023-12-20T01:54:23;98.10;;;60.15;;
46290;SDS011;32023;44.444;26.006;2023-12-20T01:56:50;100.90;;;59.15;;
46290;SDS011;32023;44.444;26.006;2023-12-20T01:59:17;96.75;;;60.25;;
46290;SDS011;32023;44.444;26.006;2023-12-20T02:01:46;110.68;;;64.35;;
46290;SDS011;32023;44.444;26.006;2023-12-20T02:04:14;102.40;;;62.08;;
46290;SDS011;32023;44.444;26.006;2023-12-20T02:06:55;108.47;;;64.97;;
46290;SDS011;32023;44.444;26.006;2023-12-20T02:09:26;109.93;;;65.68;;
46290;SDS011;32023;44.444;26.006;2023-12-20T02:11:54;114.72;;;68.05;;
46290;SDS011;32023;44.444;26.006;2023-12-20T02:14:24;119.22;;;65.05;;
46290;SDS011;32023;44.444;26.006;2023-12-20T02:16:56;122.50;;;69.10;;
46290;SDS011;32023;44.444;26.006;2023-12-20T02:19:23;113.97;;;66.53;;
46290;SDS011;32023;44.444;26.006;2023-12-20T02:21:50;112.95;;;66.35;;
46290;SDS011;32023;44.444;26.006;2023-12-20T02:24:30;117.15;;;67.45;;
46290;SDS011;32023;44.444;26.006;2023-12-20T02:27:01;122.60;;;67.35;;
46290;SDS011;32023;44.444;26.006;2023-12-20T02:29:28;116.05;;;68.95;;
46290;SDS011;32023;44.444;26.006;2023-12-20T02:34:32;114.50;;;67.93;;
46290;SDS011;32023;44.444;26.006;2023-12-20T02:37:06;119.75;;;68.15;;
46290;SDS011;32023;44.444;26.006;2023-12-20T02:39:32;128.38;;;69.55;;
46290;SDS011;32023;44.444;26.006;2023-12-20T02:42:04;122.88;;;69.85;;
46290;SDS011;32023;44.444;26.006;2023-12-20T02:44:33;116.55;;;69.72;;
46290;SDS011;32023;44.444;26.006;2023-12-20T02:47:02;117.65;;;67.50;;
46290;SDS011;32023;44.444;26.006;2023-12-20T02:52:09;113.18;;;66.95;;
46290;SDS011;32023;44.444;26.006;2023-12-20T02:54:39;114.13;;;68.10;;
46290;SDS011;32023;44.444;26.006;2023-12-20T02:57:05;120.15;;;69.60;;
46290;SDS011;32023;44.444;26.006;2023-12-20T02:59:32;120.65;;;67.32;;
46290;SDS011;32023;44.444;26.006;2023-12-20T03:04:28;122.80;;;69.97;;
46290;SDS011;32023;44.444;26.006;2023-12-20T03:07:13;119.63;;;69.93;;
46290;SDS011;32023;44.444;26.006;2023-12-20T03:09:40;127.53;;;67.38;;
46290;SDS011;32023;44.444;26.006;2023-12-20T03:12:19;126.13;;;68.53;;
46290;SDS011;32023;44.444;26.006;2023-12-20T03:14:54;123.18;;;70.50;;
46290;SDS011;32023;44.444;26.006;2023-12-20T03:17:23;115.55;;;67.82;;
46290;SDS011;32023;44.444;26.006;2023-12-20T03:19:51;126.15;;;69.35;;
46290;SDS011;32023;44.444;26.006;2023-12-20T03:22:18;121.20;;;70.90;;
46290;SDS011;32023;44.444;26.006;2023-12-20T03:24:44;115.07;;;66.30;;
46290;SDS011;32023;44.444;26.006;2023-12-20T03:27:17;124.03;;;69.78;;
46290;SDS011;32023;44.444;26.006;2023-12-20T03:29:43;119.07;;;69.10;;
46290;SDS011;32023;44.444;26.006;2023-12-20T03:32:09;120.93;;;69.15;;
46290;SDS011;32023;44.444;26.006;2023-12-20T03:34:39;117.38;;;67.65;;
46290;SDS011;32023;44.444;26.006;2023-12-20T03:37:12;113.10;;;67.03;;
46290;SDS011;32023;44.444;26.006;2023-12-20T03:39:41;119.13;;;67.60;;
46290;SDS011;32023;44.444;26.006;2023-12-20T03:42:08;109.53;;;65.15;;
46290;SDS011;32023;44.444;26.006;2023-12-20T03:44:40;123.60;;;67.20;;
46290;SDS011;32023;44.444;26.006;2023-12-20T03:47:07;111.25;;;65.15;;
46290;SDS011;32023;44.444;26.006;2023-12-20T03:49:33;112.07;;;64.22;;
46290;SDS011;32023;44.444;26.006;2023-12-20T03:52:02;115.38;;;67.30;;
46290;SDS011;32023;44.444;26.006;2023-12-20T03:54:32;105.40;;;61.08;;
46290;SDS011;32023;44.444;26.006;2023-12-20T03:57:00;108.97;;;63.78;;
46290;SDS011;32023;44.444;26.006;2023-12-20T03:59:26;103.25;;;62.75;;
46290;SDS011;32023;44.444;26.006;2023-12-20T04:01:54;109.68;;;61.97;;
46290;SDS011;32023;44.444;26.006;2023-12-20T04:04:22;110.82;;;61.22;;
46290;SDS011;32023;44.444;26.006;2023-12-20T04:06:48;105.00;;;60.63;;
46290;SDS011;32023;44.444;26.006;2023-12-20T04:09:24;104.57;;;61.78;;
46290;SDS011;32023;44.444;26.006;2023-12-20T04:11:52;102.82;;;60.65;;
46290;SDS011;32023;44.444;26.006;2023-12-20T04:14:21;94.15;;;56.10;;
46290;SDS011;32023;44.444;26.006;2023-12-20T04:16:47;102.65;;;57.47;;
46290;SDS011;32023;44.444;26.006;2023-12-20T04:21:50;97.25;;;55.78;;
46290;SDS011;32023;44.444;26.006;2023-12-20T04:24:20;91.07;;;53.45;;
46290;SDS011;32023;44.444;26.006;2023-12-20T04:26:47;96.03;;;54.13;;
46290;SDS011;32023;44.444;26.006;2023-12-20T04:29:15;90.43;;;54.63;;
46290;SDS011;32023;44.444;26.006;2023-12-20T04:31:42;96.65;;;56.55;;
46290;SDS011;32023;44.444;26.006;2023-12-20T04:34:13;91.18;;;54.78;;
46290;SDS011;32023;44.444;26.006;2023-12-20T04:36:39;92.05;;;52.78;;
46290;SDS011;32023;44.444;26.006;2023-12-20T04:39:06;89.90;;;50.83;;
46290;SDS011;32023;44.444;26.006;2023-12-20T04:44:39;91.93;;;52.10;;
46290;SDS011;32023;44.444;26.006;2023-12-20T04:47:09;89.47;;;49.83;;
46290;SDS011;32023;44.444;26.006;2023-12-20T04:52:37;86.78;;;50.05;;
46290;SDS011;32023;44.444;26.006;2023-12-20T04:55:17;83.88;;;46.83;;
46290;SDS011;32023;44.444;26.006;2023-12-20T05:00:32;85.85;;;48.13;;
46290;SDS011;32023;44.444;26.006;2023-12-20T05:03:14;77.47;;;44.55;;
46290;SDS011;32023;44.444;26.006;2023-12-20T05:05:41;81.63;;;46.17;;
46290;SDS011;32023;44.444;26.006;2023-12-20T05:08:07;82.47;;;46.10;;
46290;SDS011;32023;44.444;26.006;2023-12-20T05:10:37;77.88;;;46.15;;
46290;SDS011;32023;44.444;26.006;2023-12-20T05:16:21;75.75;;;43.15;;
46290;SDS011;32023;44.444;26.006;2023-12-20T05:18:53;76.63;;;41.33;;
46290;SDS011;32023;44.444;26.006;2023-12-20T05:21:23;74.93;;;43.58;;
46290;SDS011;32023;44.444;26.006;2023-12-20T05:23:58;76.35;;;42.75;;
46290;SDS011;32023;44.444;26.006;2023-12-20T05:26:28;75.90;;;43.40;;
46290;SDS011;32023;44.444;26.006;2023-12-20T05:29:05;65.05;;;36.55;;
46290;SDS011;32023;44.444;26.006;2023-12-20T05:31:35;68.88;;;38.70;;
46290;SDS011;32023;44.444;26.006;2023-12-20T05:34:10;73.75;;;40.47;;
46290;SDS011;32023;44.444;26.006;2023-12-20T05:36:39;63.33;;;34.70;;
46290;SDS011;32023;44.444;26.006;2023-12-20T05:39:06;62.97;;;34.53;;
46290;SDS011;32023;44.444;26.006;2023-12-20T05:44:04;59.72;;;31.60;;
46290;SDS011;32023;44.444;26.006;2023-12-20T05:46:30;59.63;;;34.15;;
46290;SDS011;32023;44.444;26.006;2023-12-20T05:48:57;65.82;;;33.15;;
46290;SDS011;32023;44.444;26.006;2023-12-20T05:51:23;66.40;;;31.35;;
46290;SDS011;32023;44.444;26.006;2023-12-20T05:53:52;65.22;;;32.65;;
46290;SDS011;32023;44.444;26.006;2023-12-20T05:56:18;66.30;;;32.30;;
46290;SDS011;32023;44.444;26.006;2023-12-20T05:58:57;56.63;;;29.70;;
46290;SDS011;32023;44.444;26.006;2023-12-20T06:01:32;54.20;;;30.85;;
46290;SDS011;32023;44.444;26.006;2023-12-20T06:04:01;55.55;;;29.20;;
46290;SDS011;32023;44.444;26.006;2023-12-20T06:06:32;55.10;;;27.17;;
46290;SDS011;32023;44.444;26.006;2023-12-20T06:08:58;54.25;;;27.75;;
46290;SDS011;32023;44.444;26.006;2023-12-20T06:11:34;70.15;;;31.40;;
46290;SDS011;32023;44.444;26.006;2023-12-20T06:14:09;66.95;;;29.98;;
46290;SDS011;32023;44.444;26.006;2023-12-20T06:16:36;98.07;;;36.25;;
46290;SDS011;32023;44.444;26.006;2023-12-20T06:19:05;216.90;;;62.40;;
46290;SDS011;32023;44.444;26.006;2023-12-20T06:21:36;96.57;;;39.10;;
46290;SDS011;32023;44.444;26.006;2023-12-20T06:24:05;53.05;;;28.02;;
46290;SDS011;32023;44.444;26.006;2023-12-20T06:32:37;55.53;;;27.20;;
46290;SDS011;32023;44.444;26.006;2023-12-20T06:35:09;56.70;;;28.33;;
46290;SDS011;32023;44.444;26.006;2023-12-20T06:44:05;52.60;;;25.83;;
46290;SDS011;32023;44.444;26.006;2023-12-20T06:46:57;45.58;;;24.98;;
46290;SDS011;32023;44.444;26.006;2023-12-20T06:49:29;46.28;;;25.55;;
46290;SDS011;32023;44.444;26.006;2023-12-20T06:54:50;57.55;;;25.92;;
46290;SDS011;32023;44.444;26.006;2023-12-20T06:57:24;56.38;;;28.23;;
46290;SDS011;32023;44.444;26.006;2023-12-20T07:03:15;49.05;;;25.65;;
46290;SDS011;32023;44.444;26.006;2023-12-20T07:05:47;53.40;;;26.27;;
46290;SDS011;32023;44.444;26.006;2023-12-20T07:10:50;64.25;;;35.50;;
46290;SDS011;32023;44.444;26.006;2023-12-20T07:13:19;61.88;;;31.73;;
46290;SDS011;32023;44.444;26.006;2023-12-20T07:18:28;60.85;;;30.02;;
46290;SDS011;32023;44.444;26.006;2023-12-20T07:21:02;54.60;;;29.83;;
46290;SDS011;32023;44.444;26.006;2023-12-20T07:23:31;58.97;;;28.77;;
46290;SDS011;32023;44.444;26.006;2023-12-20T07:25:57;52.80;;;28.42;;
46290;SDS011;32023;44.444;26.006;2023-12-20T07:31:57;52.90;;;27.17;;
46290;SDS011;32023;44.444;26.006;2023-12-20T07:34:27;57.03;;;27.75;;
46290;SDS011;32023;44.444;26.006;2023-12-20T07:38:00;54.45;;;30.33;;
46290;SDS011;32023;44.444;26.006;2023-12-20T07:40:27;60.78;;;31.83;;
46290;SDS011;32023;44.444;26.006;2023-12-20T07:43:05;58.65;;;31.25;;
46290;SDS011;32023;44.444;26.006;2023-12-20T07:45:45;67.78;;;33.53;;
46290;SDS011;32023;44.444;26.006;2023-12-20T07:48:15;63.20;;;32.53;;
46290;SDS011;32023;44.444;26.006;2023-12-20T07:50:49;61.28;;;33.60;;
46290;SDS011;32023;44.444;26.006;2023-12-20T07:53:18;65.00;;;33.65;;
46290;SDS011;32023;44.444;26.006;2023-12-20T07:55:51;61.42;;;30.10;;
46290;SDS011;32023;44.444;26.006;2023-12-20T07:58:23;58.30;;;32.88;;
46290;SDS011;32023;44.444;26.006;2023-12-20T08:00:50;61.47;;;34.50;;
46290;SDS011;32023;44.444;26.006;2023-12-20T08:03:16;64.97;;;33.92;;
46290;SDS011;32023;44.444;26.006;2023-12-20T08:05:46;67.55;;;35.22;;
46290;SDS011;32023;44.444;26.006;2023-12-20T08:08:15;64.60;;;33.83;;
46290;SDS011;32023;44.444;26.006;2023-12-20T08:10:46;45.10;;;26.30;;
46290;SDS011;32023;44.444;26.006;2023-12-20T08:13:12;51.65;;;26.48;;
46290;SDS011;32023;44.444;26.006;2023-12-20T08:15:52;51.40;;;28.02;;
46290;SDS011;32023;44.444;26.006;2023-12-20T08:18:20;42.42;;;26.15;;
46290;SDS011;32023;44.444;26.006;2023-12-20T08:20:50;46.15;;;28.58;;
46290;SDS011;32023;44.444;26.006;2023-12-20T08:23:22;46.78;;;28.42;;
46290;SDS011;32023;44.444;26.006;2023-12-20T08:25:49;49.03;;;29.80;;
46290;SDS011;32023;44.444;26.006;2023-12-20T08:28:23;54.05;;;29.83;;
46290;SDS011;32023;44.444;26.006;2023-12-20T08:30:58;46.90;;;28.90;;
46290;SDS011;32023;44.444;26.006;2023-12-20T08:36:28;66.32;;;34.45;;
46290;SDS011;32023;44.444;26.006;2023-12-20T08:38:54;54.92;;;34.97;;
46290;SDS011;32023;44.444;26.006;2023-12-20T08:44:01;59.45;;;34.83;;
46290;SDS011;32023;44.444;26.006;2023-12-20T08:46:36;51.88;;;31.67;;
46290;SDS011;32023;44.444;26.006;2023-12-20T08:49:02;59.47;;;33.05;;
46290;SDS011;32023;44.444;26.006;2023-12-20T08:51:44;55.15;;;32.00;;
46290;SDS011;32023;44.444;26.006;2023-12-20T08:54:10;51.75;;;28.80;;
46290;SDS011;32023;44.444;26.006;2023-12-20T08:56:38;47.70;;;27.58;;
46290;SDS011;32023;44.444;26.006;2023-12-20T08:59:07;52.75;;;29.35;;
46290;SDS011;32023;44.444;26.006;2023-12-20T09:01:45;47.33;;;26.08;;
46290;SDS011;32023;44.444;26.006;2023-12-20T09:04:46;43.55;;;25.63;;
46290;SDS011;32023;44.444;26.006;2023-12-20T09:07:27;47.60;;;26.88;;
46290;SDS011;32023;44.444;26.006;2023-12-20T09:10:18;44.75;;;26.13;;
46290;SDS011;32023;44.444;26.006;2023-12-20T09:17:55;47.42;;;24.65;;
46290;SDS011;32023;44.444;26.006;2023-12-20T09:20:21;46.60;;;27.23;;
46290;SDS011;32023;44.444;26.006;2023-12-20T09:22:52;44.60;;;27.70;;
46290;SDS011;32023;44.444;26.006;2023-12-20T09:28:08;49.88;;;28.77;;
46290;SDS011;32023;44.444;26.006;2023-12-20T09:30:35;53.65;;;30.67;;
46290;SDS011;32023;44.444;26.006;2023-12-20T09:33:05;47.15;;;30.00;;
46290;SDS011;32023;44.444;26.006;2023-12-20T09:35:46;50.78;;;30.88;;
46290;SDS011;32023;44.444;26.006;2023-12-20T09:38:13;52.90;;;31.70;;
46290;SDS011;32023;44.444;26.006;2023-12-20T09:43:46;45.08;;;28.80;;
46290;SDS011;32023;44.444;26.006;2023-12-20T09:46:33;42.78;;;27.80;;
46290;SDS011;32023;44.444;26.006;2023-12-20T09:55:26;43.22;;;26.55;;
46290;SDS011;32023;44.444;26.006;2023-12-20T09:57:59;51.35;;;27.00;;
46290;SDS011;32023;44.444;26.006;2023-12-20T10:00:26;45.65;;;28.52;;
46290;SDS011;32023;44.444;26.006;2023-12-20T10:58:38;42.45;;;28.83;;
46290;SDS011;32023;44.444;26.006;2023-12-20T11:47:05;51.75;;;28.83;;
46290;SDS011;32023;44.444;26.006;2023-12-20T11:50:28;54.42;;;31.45;;
46290;SDS011;32023;44.444;26.006;2023-12-20T11:53:05;47.65;;;29.17;;
46290;SDS011;32023;44.444;26.006;2023-12-20T11:55:52;56.13;;;31.23;;
46290;SDS011;32023;44.444;26.006;2023-12-20T11:58:31;51.38;;;31.52;;
46290;SDS011;32023;44.444;26.006;2023-12-20T12:04:29;42.67;;;27.50;;
46290;SDS011;32023;44.444;26.006;2023-12-20T12:06:58;43.65;;;27.00;;
46290;SDS011;32023;44.444;26.006;2023-12-20T12:09:32;42.38;;;27.05;;
46290;SDS011;32023;44.444;26.006;2023-12-20T12:12:19;41.53;;;25.77;;
46290;SDS011;32023;44.444;26.006;2023-12-20T12:14:57;45.38;;;25.75;;
46290;SDS011;32023;44.444;26.006;2023-12-20T12:17:24;43.03;;;26.80;;
46290;SDS011;32023;44.444;26.006;2023-12-20T12:19:51;43.65;;;26.65;;
46290;SDS011;32023;44.444;26.006;2023-12-20T12:22:29;43.63;;;27.98;;
46290;SDS011;32023;44.444;26.006;2023-12-20T12:25:11;48.08;;;27.90;;
46290;SDS011;32023;44.444;26.006;2023-12-20T12:27:39;43.00;;;26.42;;
46290;SDS011;32023;44.444;26.006;2023-12-20T12:30:07;39.17;;;25.60;;
46290;SDS011;32023;44.444;26.006;2023-12-20T12:32:40;47.50;;;27.42;;
46290;SDS011;32023;44.444;26.006;2023-12-20T12:35:15;41.72;;;23.15;;
46290;SDS011;32023;44.444;26.006;2023-12-20T12:37:42;40.67;;;24.98;;
46290;SDS011;32023;44.444;26.006;2023-12-20T12:40:12;42.08;;;23.77;;
46290;SDS011;32023;44.444;26.006;2023-12-20T12:42:40;35.38;;;22.08;;
46290;SDS011;32023;44.444;26.006;2023-12-20T12:45:08;35.25;;;22.65;;
46290;SDS011;32023;44.444;26.006;2023-12-20T12:47:36;40.95;;;23.40;;
46290;SDS011;32023;44.444;26.006;2023-12-20T12:50:03;37.20;;;21.85;;
46290;SDS011;32023;44.444;26.006;2023-12-20T12:52:30;39.70;;;22.90;;
46290;SDS011;32023;44.444;26.006;2023-12-20T12:54:58;35.65;;;21.83;;
46290;SDS011;32023;44.444;26.006;2023-12-20T13:00:19;37.85;;;22.20;;
46290;SDS011;32023;44.444;26.006;2023-12-20T13:03:33;42.53;;;21.30;;
46290;SDS011;32023;44.444;26.006;2023-12-20T13:09:58;36.85;;;22.33;;
46290;SDS011;32023;44.444;26.006;2023-12-20T13:12:25;37.83;;;23.42;;
46290;SDS011;32023;44.444;26.006;2023-12-20T13:14:51;37.97;;;23.35;;
46290;SDS011;32023;44.444;26.006;2023-12-20T13:17:19;37.40;;;22.08;;
46290;SDS011;32023;44.444;26.006;2023-12-20T13:19:46;34.40;;;21.85;;
46290;SDS011;32023;44.444;26.006;2023-12-20T13:32:25;42.65;;;26.85;;
46290;SDS011;32023;44.444;26.006;2023-12-20T13:35:12;37.63;;;23.77;;
46290;SDS011;32023;44.444;26.006;2023-12-20T13:38:04;39.42;;;22.85;;
46290;SDS011;32023;44.444;26.006;2023-12-20T13:40:32;36.38;;;23.50;;
46290;SDS011;32023;44.444;26.006;2023-12-20T13:52:32;34.85;;;22.70;;
46290;SDS011;32023;44.444;26.006;2023-12-20T13:55:02;38.95;;;23.50;;
46290;SDS011;32023;44.444;26.006;2023-12-20T13:57:35;36.38;;;23.98;;
46290;SDS011;32023;44.444;26.006;2023-12-20T14:02:44;39.85;;;23.98;;
46290;SDS011;32023;44.444;26.006;2023-12-20T14:05:15;46.47;;;24.10;;
46290;SDS011;32023;44.444;26.006;2023-12-20T14:07:47;37.90;;;25.20;;
46290;SDS011;32023;44.444;26.006;2023-12-20T14:10:16;42.05;;;24.58;;
46290;SDS011;32023;44.444;26.006;2023-12-20T14:12:42;39.70;;;24.33;;
46290;SDS011;32023;44.444;26.006;2023-12-20T14:15:09;41.47;;;25.42;;
46290;SDS011;32023;44.444;26.006;2023-12-20T14:17:38;38.22;;;22.48;;
46290;SDS011;32023;44.444;26.006;2023-12-20T14:20:22;47.28;;;25.98;;
46290;SDS011;32023;44.444;26.006;2023-12-20T14:22:52;42.65;;;25.23;;
46290;SDS011;32023;44.444;26.006;2023-12-20T14:25:18;43.40;;;24.73;;
46290;SDS011;32023;44.444;26.006;2023-12-20T14:27:45;48.55;;;27.70;;
46290;SDS011;32023;44.444;26.006;2023-12-20T14:30:12;48.70;;;27.40;;
46290;SDS011;32023;44.444;26.006;2023-12-20T14:35:22;45.35;;;26.50;;
46290;SDS011;32023;44.444;26.006;2023-12-20T14:37:48;40.35;;;25.30;;
46290;SDS011;32023;44.444;26.006;2023-12-20T14:40:15;43.58;;;27.00;;
46290;SDS011;32023;44.444;26.006;2023-12-20T14:42:55;44.17;;;26.63;;
46290;SDS011;32023;44.444;26.006;2023-12-20T14:47:55;41.95;;;25.23;;
46290;SDS011;32023;44.444;26.006;2023-12-20T14:50:22;41.22;;;26.02;;
46290;SDS011;32023;44.444;26.006;2023-12-20T14:52:57;43.72;;;27.48;;
46290;SDS011;32023;44.444;26.006;2023-12-20T14:55:25;42.25;;;26.67;;
46290;SDS011;32023;44.444;26.006;2023-12-20T14:57:53;42.05;;;25.35;;
46290;SDS011;32023;44.444;26.006;2023-12-20T15:03:08;48.47;;;25.35;;
46290;SDS011;32023;44.444;26.006;2023-12-20T15:05:35;40.05;;;25.55;;
46290;SDS011;32023;44.444;26.006;2023-12-20T15:08:07;36.97;;;24.27;;
46290;SDS011;32023;44.444;26.006;2023-12-20T15:10:35;39.55;;;24.27;;
46290;SDS011;32023;44.444;26.006;2023-12-20T15:15:40;46.53;;;27.60;;
46290;SDS011;32023;44.444;26.006;2023-12-20T15:18:17;43.28;;;25.73;;
46290;SDS011;32023;44.444;26.006;2023-12-20T15:23:38;48.33;;;28.63;;
46290;SDS011;32023;44.444;26.006;2023-12-20T15:26:32;45.88;;;28.20;;
46290;SDS011;32023;44.444;26.006;2023-12-20T15:41:29;45.70;;;30.08;;
46290;SDS011;32023;44.444;26.006;2023-12-20T15:46:46;55.13;;;33.38;;
46290;SDS011;32023;44.444;26.006;2023-12-20T15:49:19;55.47;;;32.85;;
46290;SDS011;32023;44.444;26.006;2023-12-20T15:51:46;50.15;;;30.00;;
46290;SDS011;32023;44.444;26.006;2023-12-20T15:54:20;52.60;;;29.42;;
46290;SDS011;32023;44.444;26.006;2023-12-20T15:56:50;47.80;;;30.42;;
46290;SDS011;32023;44.444;26.006;2023-12-20T15:59:16;48.88;;;28.83;;
46290;SDS011;32023;44.444;26.006;2023-12-20T16:01:46;48.67;;;31.50;;
46290;SDS011;32023;44.444;26.006;2023-12-20T16:04:21;47.90;;;29.80;;
46290;SDS011;32023;44.444;26.006;2023-12-20T16:06:50;51.00;;;32.05;;
46290;SDS011;32023;44.444;26.006;2023-12-20T16:09:19;49.88;;;31.42;;
46290;SDS011;32023;44.444;26.006;2023-12-20T16:11:46;49.70;;;29.92;;
46290;SDS011;32023;44.444;26.006;2023-12-20T16:14:15;53.08;;;31.73;;
46290;SDS011;32023;44.444;26.006;2023-12-20T16:16:50;48.43;;;31.53;;
46290;SDS011;32023;44.444;26.006;2023-12-20T16:19:19;49.90;;;32.17;;
46290;SDS011;32023;44.444;26.006;2023-12-20T16:21:45;56.03;;;33.53;;
46290;SDS011;32023;44.444;26.006;2023-12-20T16:27:08;63.58;;;38.15;;
46290;SDS011;32023;44.444;26.006;2023-12-20T16:29:35;57.65;;;34.85;;
46290;SDS011;32023;44.444;26.006;2023-12-20T16:32:03;60.83;;;34.70;;
46290;SDS011;32023;44.444;26.006;2023-12-20T16:34:30;55.25;;;34.70;;
46290;SDS011;32023;44.444;26.006;2023-12-20T16:36:57;55.22;;;33.47;;
46290;SDS011;32023;44.444;26.006;2023-12-20T16:39:26;53.92;;;33.97;;
46290;SDS011;32023;44.444;26.006;2023-12-20T16:41:59;59.05;;;35.33;;
46290;SDS011;32023;44.444;26.006;2023-12-20T16:44:38;57.78;;;34.10;;
46290;SDS011;32023;44.444;26.006;2023-12-20T16:47:06;55.25;;;32.38;;
46290;SDS011;32023;44.444;26.006;2023-12-20T16:49:33;55.60;;;33.47;;
46290;SDS011;32023;44.444;26.006;2023-12-20T16:52:07;55.30;;;34.55;;
46290;SDS011;32023;44.444;26.006;2023-12-20T16:54:35;50.58;;;30.30;;
46290;SDS011;32023;44.444;26.006;2023-12-20T16:57:03;50.03;;;30.63;;
46290;SDS011;32023;44.444;26.006;2023-12-20T16:59:32;55.17;;;33.25;;
46290;SDS011;32023;44.444;26.006;2023-12-20T17:02:01;62.20;;;33.55;;
46290;SDS011;32023;44.444;26.006;2023-12-20T17:04:58;57.10;;;34.75;;
46290;SDS011;32023;44.444;26.006;2023-12-20T17:07:29;62.28;;;36.28;;
46290;SDS011;32023;44.444;26.006;2023-12-20T17:12:33;68.05;;;39.90;;
46290;SDS011;32023;44.444;26.006;2023-12-20T17:15:16;69.03;;;40.50;;
46290;SDS011;32023;44.444;26.006;2023-12-20T17:17:51;72.30;;;42.30;;
46290;SDS011;32023;44.444;26.006;2023-12-20T17:20:20;75.80;;;44.63;;
46290;SDS011;32023;44.444;26.006;2023-12-20T17:22:47;84.03;;;48.03;;
46290;SDS011;32023;44.444;26.006;2023-12-20T17:25:22;83.53;;;46.88;;
46290;SDS011;32023;44.444;26.006;2023-12-20T17:27:53;84.50;;;50.25;;
46290;SDS011;32023;44.444;26.006;2023-12-20T17:30:21;84.32;;;51.03;;
46290;SDS011;32023;44.444;26.006;2023-12-20T17:32:53;85.05;;;52.47;;
46290;SDS011;32023;44.444;26.006;2023-12-20T17:35:20;94.30;;;53.53;;
46290;SDS011;32023;44.444;26.006;2023-12-20T17:37:49;87.45;;;53.10;;
46290;SDS011;32023;44.444;26.006;2023-12-20T17:40:19;92.97;;;56.28;;
46290;SDS011;32023;44.444;26.006;2023-12-20T17:42:46;98.10;;;57.25;;
46290;SDS011;32023;44.444;26.006;2023-12-20T17:45:15;96.95;;;57.78;;
46290;SDS011;32023;44.444;26.006;2023-12-20T17:48:03;102.15;;;60.50;;
46290;SDS011;32023;44.444;26.006;2023-12-20T17:50:33;102.20;;;59.35;;
46290;SDS011;32023;44.444;26.006;2023-12-20T17:53:10;101.13;;;58.10;;
46290;SDS011;32023;44.444;26.006;2023-12-20T17:55:40;101.30;;;59.30;;
46290;SDS011;32023;44.444;26.006;2023-12-20T18:00:44;102.30;;;62.17;;
46290;SDS011;32023;44.444;26.006;2023-12-20T18:03:12;115.30;;;65.00;;
46290;SDS011;32023;44.444;26.006;2023-12-20T18:05:49;100.50;;;61.50;;
46290;SDS011;32023;44.444;26.006;2023-12-20T18:08:20;108.22;;;64.03;;
46290;SDS011;32023;44.444;26.006;2023-12-20T18:10:49;102.00;;;61.78;;
46290;SDS011;32023;44.444;26.006;2023-12-20T18:16:29;105.38;;;61.45;;
46290;SDS011;32023;44.444;26.006;2023-12-20T18:19:24;97.63;;;59.05;;
46290;SDS011;32023;44.444;26.006;2023-12-20T18:22:25;87.97;;;54.78;;
46290;SDS011;32023;44.444;26.006;2023-12-20T18:25:00;93.00;;;54.47;;
46290;SDS011;32023;44.444;26.006;2023-12-20T18:27:29;89.95;;;53.25;;
46290;SDS011;32023;44.444;26.006;2023-12-20T18:30:00;88.57;;;52.92;;
46290;SDS011;32023;44.444;26.006;2023-12-20T18:32:45;85.45;;;50.75;;
46290;SDS011;32023;44.444;26.006;2023-12-20T18:35:12;85.88;;;50.00;;
46290;SDS011;32023;44.444;26.006;2023-12-20T18:43:36;80.65;;;47.63;;
46290;SDS011;32023;44.444;26.006;2023-12-20T18:46:03;82.68;;;47.70;;
46290;SDS011;32023;44.444;26.006;2023-12-20T18:48:33;89.40;;;50.75;;
46290;SDS011;32023;44.444;26.006;2023-12-20T18:51:00;81.40;;;48.45;;
46290;SDS011;32023;44.444;26.006;2023-12-20T18:57:01;75.25;;;44.40;;
46290;SDS011;32023;44.444;26.006;2023-12-20T18:59:29;79.40;;;48.13;;
46290;SDS011;32023;44.444;26.006;2023-12-20T19:05:15;78.70;;;48.80;;
46290;SDS011;32023;44.444;26.006;2023-12-20T19:08:00;83.60;;;45.60;;
46290;SDS011;32023;44.444;26.006;2023-12-20T19:13:05;78.93;;;46.80;;
46290;SDS011;32023;44.444;26.006;2023-12-20T19:15:35;72.18;;;45.10;;